KMDH Weather | Aviation | SIU

Home
Southern Illinois University

CONTACT

SIU.EDU

Aviation - Weather

College of Applied Sciences and Arts

KMDH Weather

NOTICE: Although all weather products are taken from the National Weather Service, this data should be used only as a supplement to a formal weather briefing.

Last Updated: Wednesday, October 27th, 2021, 8:50 am
Information on this page is updated every 5 minutes.


METARS

KMDH 271252Z 09005KT 10SM CLR 07/06 A2997 RMK AO2 SLP148 T00720061

KMDH 271152Z 00000KT 10SM CLR 05/04 A2997 RMK AO2 SLP148 T00500044 10072 20050

KMDH 271052Z AUTO 11004KT 10SM CLR 07/06 A2994 RMK AO2 SLP139 T00670061

KMWA 271345Z 12008KT 10SM SCT200 09/06 A2998

KMWA 271245Z 12006KT 10SM BKN200 07/05 A2997

KMWA 271155Z 12005KT 10SM BKN200 07/05 A2997

KMWA 271135Z AUTO 11003KT 10SM CLR A2997 RMK AO2

KMWA 271115Z AUTO 00000KT 10SM CLR A2996 RMK AO2

KMWA 271055Z AUTO 00000KT 10SM CLR A2996 RMK AO2

KCGI 271253Z 09003KT 10SM CLR 10/07 A2995 RMK AO2 SLP140 T01000072

KCGI 271153Z 07006KT 10SM CLR 08/06 A2994 RMK AO2 SLP137 T00830056 10106 20083

KCGI 271053Z AUTO 11005KT 10SM CLR 09/07 A2993 RMK AO2 SLP133 T00940067

KSAR 271315Z AUTO 11007KT 10SM CLR 08/06 A2997 RMK AO2 T00820059

KSAR 271255Z AUTO 11006KT 10SM CLR 08/06 A2997 RMK AO2 T00760057

KSAR 271235Z AUTO 12004KT 10SM CLR 07/06 A2996 RMK AO2 LTG DSNT NW T00720056

KSAR 271215Z AUTO 11006KT 10SM CLR 07/06 A2996 RMK AO2 T00740056

KSAR 271155Z AUTO 12005KT 10SM CLR 08/06 A2996 RMK AO2 T00750057 10085 20075

KSAR 271135Z AUTO 13004KT 10SM CLR 08/06 A2996 RMK AO2 T00760057

KSAR 271115Z AUTO 13004KT 10SM CLR 08/06 A2996 RMK AO2 T00780057

KSAR 271055Z AUTO 12006KT 10SM CLR 08/06 A2995 RMK AO2 T00760057

KFAM 271256Z AUTO 16006KT 10SM CLR 09/07 A2994 RMK AO2 SLP148 T00890067

KFAM 271156Z AUTO 15005KT 10SM CLR 09/06 A2992 RMK AO2 SLP146 T00890061 10100

KFAM 271056Z AUTO 15006KT 10SM CLR 08/07 A2993 RMK AO2 SLP146 T00830067

KMVN 271256Z AUTO 06004KT 10SM CLR 06/06 A3000 RMK AO2 SLP165 T00610061

KMVN 271156Z AUTO 06004KT 10SM CLR 06/06 A2998 RMK AO2 SLP158 T00610061 10072

KMVN 271056Z AUTO 10005KT 10SM CLR 07/07 A2997 RMK AO2 SLP154 T00720072

KHSB 271335Z AUTO 10003KT 10SM CLR 09/06 A3001 RMK AO2 T00850057

KHSB 271315Z AUTO 07004KT 10SM CLR 08/05 A3000 RMK AO2 T00750052

KHSB 271255Z AUTO 07004KT 10SM CLR 07/05 A3000 RMK AO2 T00660045

KCIR 271335Z AUTO 13003KT 10SM CLR 09/07 A2996 RMK AO2 T00900067

KCIR 271315Z AUTO 14005KT 10SM CLR 10/07 A2996 RMK AO2 T00950070

KCIR 271255Z AUTO 14004KT 10SM CLR 09/07 A2995 RMK AO2 T00870070

KPAH 271253Z 10004KT 10SM CLR 08/06 A2995 RMK AO2 SLP142 T00830061

KFAM 271256Z AUTO 16006KT 10SM CLR 09/07 A2994 RMK AO2 SLP148 T00890067

KBLV 271256Z AUTO 11006KT 9SM FEW085 08/05 A2995 RMK AO2 VIS 1/4 RWY32R SLP146

KVIH 271253Z AUTO 12011KT 10SM OVC035 11/07 A2985 RMK AO2 SLP106 T01060067

KENL 271335Z AUTO 12008KT 10SM CLR 08/06 A2999 RMK AO2 LTG DSNT SE AND NW

KENL 271315Z AUTO 10006KT 10SM CLR 07/06 A2999 RMK AO2 T00720056

KENL 271255Z AUTO 10005KT 10SM CLR 07/05 A2999 RMK AO2 T00660052

KMTO 271253Z AUTO 13007KT 10SM CLR 06/03 A3000 RMK AO2 SLP162 T00610028

KFWC 271335Z AUTO 11003KT SCT002 08/05 A3001 RMK AO1 LTG DSNT NW T00820048 PWINO

KFWC 271315Z AUTO 09004KT CLR 07/05 A3001 RMK AO1 T00730045 PWINO

KFWC 271255Z AUTO 00000KT 07/04 A3001 RMK AO1 T00670042 PWINO

KCUL 271333Z AUTO 3/4SM FG VV005 08/06 A3001 RMK AO2 LTG DSNT NW

KCUL 271313Z AUTO 3/4SM BR VV005 07/06 A3001 RMK AO2

KCUL 271253Z AUTO 2 1/2SM BR CLR 06/05 A3001 RMK AO2

KEVV 271254Z 00000KT 10SM CLR 06/04 A3002 RMK AO2 SLP166 T00610039

KCEY 271335Z AUTO 08006KT 10SM CLR 09/07 A2996 RMK AO1

KCEY 271315Z AUTO 08007KT 10SM CLR 08/07 A2996 RMK AO1

KCEY 271255Z AUTO 08005KT 3SM CLR 07/07 A2997 RMK AO1

KHOP 271256Z AUTO 00000KT 10SM CLR 07/07 A2997 RMK AO2 SLP152 T00720066

KARG 271256Z AUTO 08008KT 10SM FEW050 11/09 A2988 RMK AO2 SLP121 T01110089

KJBR 271253Z AUTO 07008KT 10SM CLR 11/09 A2989 RMK AO2 SLP120 T01110089 $

KCOU 271254Z 11012G19KT 10SM OVC038 11/06 A2983 RMK AO2 SLP101 T01110061

KAJG 271315Z AUTO 00000KT 1/2SM FG VV005 06/05 A3003 RMK AO2 T00640052

KAJG 271255Z AUTO 09004KT 3/4SM BR VV005 05/04 A3001 RMK AO2 T00500039

KM30 271335Z AUTO 09003KT 10SM CLR 09/07 A2998 RMK AO2 T00870071

KM30 271315Z AUTO 00000KT 10SM CLR 08/07 A2998 RMK AO2 T00760070

KM30 271255Z AUTO 00000KT 10SM CLR 06/06 A2997 RMK AO2 T00640064

KDEC 271254Z 11005KT 10SM CLR 05/04 A3002 RMK AO2 SLP170 T00500044

KIJX 271315Z AUTO 11010KT 10SM CLR 07/05 A2997 RMK AO2 T00720054

KIJX 271255Z AUTO 11009KT 10SM SCT080 07/05 A2998 RMK AO2 T00700052


TAFS

KEVV 271120Z 2712/2812 VRB03KT P6SM BKN250

        FM271400 09009KT P6SM SCT150 BKN250

        FM280000 09007KT P6SM BKN150

        FM280600 10010KT P6SM SCT030 BKN100

        FM281000 12011KT P6SM VCSH BKN030


Winds Aloft



Pilot Reports

No pilot reports found for area.



Area Forecast



Significant Weather

No significant weather available.